sensor_id;sensor_type;location;lat;lon;timestamp;pressure;altitude;pressure_sealevel;temperature;humidity
4398;BME280;2213;49.720;7.296;2022-12-10T00:00:50;97066.66;;;2.14;100.00
4398;BME280;2213;49.720;7.296;2022-12-10T00:03:19;97063.72;;;2.09;100.00
4398;BME280;2213;49.720;7.296;2022-12-10T00:05:49;97072.13;;;2.11;100.00
4398;BME280;2213;49.720;7.296;2022-12-10T00:08:18;97063.41;;;2.12;100.00
4398;BME280;2213;49.720;7.296;2022-12-10T00:10:49;97063.75;;;2.17;100.00
4398;BME280;2213;49.720;7.296;2022-12-10T00:13:20;97054.88;;;2.20;100.00
4398;BME280;2213;49.720;7.296;2022-12-10T00:15:48;97062.28;;;2.23;100.00
4398;BME280;2213;49.720;7.296;2022-12-10T00:18:18;97057.94;;;2.23;100.00
4398;BME280;2213;49.720;7.296;2022-12-10T00:20:48;97066.34;;;2.25;100.00
4398;BME280;2213;49.720;7.296;2022-12-10T00:23:18;97064.56;;;2.26;100.00
4398;BME280;2213;49.720;7.296;2022-12-10T00:25:51;97059.41;;;2.26;100.00
4398;BME280;2213;49.720;7.296;2022-12-10T00:28:21;97060.53;;;2.23;100.00
4398;BME280;2213;49.720;7.296;2022-12-10T00:30:49;97067.63;;;2.21;100.00
4398;BME280;2213;49.720;7.296;2022-12-10T00:33:19;97061.19;;;2.25;100.00
4398;BME280;2213;49.720;7.296;2022-12-10T00:35:48;97066.66;;;2.22;100.00
4398;BME280;2213;49.720;7.296;2022-12-10T00:38:18;97071.03;;;2.22;100.00
4398;BME280;2213;49.720;7.296;2022-12-10T00:40:48;97067.31;;;2.24;100.00
4398;BME280;2213;49.720;7.296;2022-12-10T00:43:18;97064.06;;;2.22;100.00
4398;BME280;2213;49.720;7.296;2022-12-10T00:45:50;97064.38;;;2.19;100.00
4398;BME280;2213;49.720;7.296;2022-12-10T00:48:20;97065.53;;;2.17;100.00
4398;BME280;2213;49.720;7.296;2022-12-10T00:50:57;97065.19;;;2.20;100.00
4398;BME280;2213;49.720;7.296;2022-12-10T00:53:28;97061.97;;;2.18;100.00
4398;BME280;2213;49.720;7.296;2022-12-10T00:55:58;97055.34;;;2.07;100.00
4398;BME280;2213;49.720;7.296;2022-12-10T00:58:30;97060.03;;;2.12;100.00
4398;BME280;2213;49.720;7.296;2022-12-10T01:01:31;97060.19;;;2.10;100.00
4398;BME280;2213;49.720;7.296;2022-12-10T01:04:05;97065.97;;;2.12;100.00
4398;BME280;2213;49.720;7.296;2022-12-10T01:06:41;97071.31;;;2.11;100.00
4398;BME280;2213;49.720;7.296;2022-12-10T01:09:14;97066.97;;;2.11;100.00
4398;BME280;2213;49.720;7.296;2022-12-10T01:11:45;97072.13;;;2.11;100.00
4398;BME280;2213;49.720;7.296;2022-12-10T01:14:18;97085.66;;;2.13;100.00
4398;BME280;2213;49.720;7.296;2022-12-10T01:16:49;97079.50;;;2.06;100.00
4398;BME280;2213;49.720;7.296;2022-12-10T01:19:19;97087.91;;;2.08;100.00
4398;BME280;2213;49.720;7.296;2022-12-10T01:21:50;97093.84;;;2.09;100.00
4398;BME280;2213;49.720;7.296;2022-12-10T01:24:19;97095.66;;;2.08;100.00
4398;BME280;2213;49.720;7.296;2022-12-10T01:26:49;97093.84;;;2.09;100.00
4398;BME280;2213;49.720;7.296;2022-12-10T01:29:18;97102.72;;;2.06;100.00
4398;BME280;2213;49.720;7.296;2022-12-10T01:31:54;97099.31;;;2.06;100.00
4398;BME280;2213;49.720;7.296;2022-12-10T01:34:24;97091.13;;;2.10;100.00
4398;BME280;2213;49.720;7.296;2022-12-10T01:36:54;97102.56;;;2.08;100.00
4398;BME280;2213;49.720;7.296;2022-12-10T01:39:24;97102.56;;;2.08;100.00
4398;BME280;2213;49.720;7.296;2022-12-10T01:41:57;97104.16;;;2.09;100.00
4398;BME280;2213;49.720;7.296;2022-12-10T01:45:01;97107.72;;;2.08;100.00
4398;BME280;2213;49.720;7.296;2022-12-10T01:47:31;97107.41;;;2.11;100.00
4398;BME280;2213;49.720;7.296;2022-12-10T01:50:01;97112.56;;;2.11;100.00
4398;BME280;2213;49.720;7.296;2022-12-10T01:52:30;97114.78;;;2.06;100.00
4398;BME280;2213;49.720;7.296;2022-12-10T01:54:59;97113.19;;;2.05;100.00
4398;BME280;2213;49.720;7.296;2022-12-10T01:57:28;97121.06;;;2.03;100.00
4398;BME280;2213;49.720;7.296;2022-12-10T02:00:03;97116.88;;;2.02;100.00
4398;BME280;2213;49.720;7.296;2022-12-10T02:02:42;97123.50;;;2.05;100.00
4398;BME280;2213;49.720;7.296;2022-12-10T02:05:23;97109.00;;;2.03;100.00
4398;BME280;2213;49.720;7.296;2022-12-10T02:08:05;97115.91;;;2.03;100.00
4398;BME280;2213;49.720;7.296;2022-12-10T02:10:53;97119.94;;;2.06;100.00
4398;BME280;2213;49.720;7.296;2022-12-10T02:13:30;97112.38;;;2.04;100.00
4398;BME280;2213;49.720;7.296;2022-12-10T02:16:08;97115.13;;;2.02;100.00
4398;BME280;2213;49.720;7.296;2022-12-10T02:18:49;97111.72;;;2.02;100.00
4398;BME280;2213;49.720;7.296;2022-12-10T02:21:28;97117.88;;;2.01;100.00
4398;BME280;2213;49.720;7.296;2022-12-10T02:24:03;97116.56;;;1.97;100.00
4398;BME280;2213;49.720;7.296;2022-12-10T02:26:42;97109.78;;;1.96;100.00
4398;BME280;2213;49.720;7.296;2022-12-10T02:29:16;97111.41;;;1.97;100.00
4398;BME280;2213;49.720;7.296;2022-12-10T02:31:57;97113.31;;;1.95;100.00
4398;BME280;2213;49.720;7.296;2022-12-10T02:34:34;97112.22;;;1.97;100.00
4398;BME280;2213;49.720;7.296;2022-12-10T02:37:10;97121.84;;;1.95;100.00
4398;BME280;2213;49.720;7.296;2022-12-10T02:39:49;97121.03;;;1.95;100.00
4398;BME280;2213;49.720;7.296;2022-12-10T02:42:21;97117.38;;;1.97;100.00
4398;BME280;2213;49.720;7.296;2022-12-10T02:44:56;97115.56;;;1.90;100.00
4398;BME280;2213;49.720;7.296;2022-12-10T02:47:26;97114.28;;;1.94;100.00
4398;BME280;2213;49.720;7.296;2022-12-10T02:49:57;97107.19;;;1.96;100.00
4398;BME280;2213;49.720;7.296;2022-12-10T02:52:28;97115.25;;;1.93;100.00
4398;BME280;2213;49.720;7.296;2022-12-10T02:54:57;97111.69;;;1.86;100.00
4398;BME280;2213;49.720;7.296;2022-12-10T02:57:36;97112.31;;;1.88;100.00
4398;BME280;2213;49.720;7.296;2022-12-10T03:00:15;97107.16;;;1.88;100.00
4398;BME280;2213;49.720;7.296;2022-12-10T03:03:25;97111.53;;;1.87;100.00
4398;BME280;2213;49.720;7.296;2022-12-10T03:06:08;97111.03;;;1.84;100.00
4398;BME280;2213;49.720;7.296;2022-12-10T03:08:47;97116.19;;;1.84;100.00
4398;BME280;2213;49.720;7.296;2022-12-10T03:11:21;97107.16;;;1.80;100.00
4398;BME280;2213;49.720;7.296;2022-12-10T03:14:00;97109.41;;;1.83;100.00
4398;BME280;2213;49.720;7.296;2022-12-10T03:16:36;97106.97;;;1.81;100.00
4398;BME280;2213;49.720;7.296;2022-12-10T03:19:16;97105.06;;;1.83;100.00
4398;BME280;2213;49.720;7.296;2022-12-10T03:21:49;97105.56;;;1.87;100.00
4398;BME280;2213;49.720;7.296;2022-12-10T03:24:21;97109.75;;;1.88;100.00
4398;BME280;2213;49.720;7.296;2022-12-10T03:26:51;97100.25;;;1.80;100.00
4398;BME280;2213;49.720;7.296;2022-12-10T03:29:26;97097.31;;;1.75;100.00
4398;BME280;2213;49.720;7.296;2022-12-10T03:31:58;97102.00;;;1.80;100.00
4398;BME280;2213;49.720;7.296;2022-12-10T03:34:28;97096.19;;;1.78;100.00
4398;BME280;2213;49.720;7.296;2022-12-10T03:36:58;97098.94;;;1.76;100.00
4398;BME280;2213;49.720;7.296;2022-12-10T03:39:28;97102.63;;;1.82;100.00
4398;BME280;2213;49.720;7.296;2022-12-10T03:41:58;97109.06;;;1.78;100.00
4398;BME280;2213;49.720;7.296;2022-12-10T03:44:29;97112.25;;;1.72;100.00
4398;BME280;2213;49.720;7.296;2022-12-10T03:47:00;97110.31;;;1.66;100.00
4398;BME280;2213;49.720;7.296;2022-12-10T03:49:30;97116.09;;;1.68;100.00
4398;BME280;2213;49.720;7.296;2022-12-10T03:51:59;97112.59;;;1.69;100.00
4398;BME280;2213;49.720;7.296;2022-12-10T03:54:29;97120.00;;;1.72;100.00
4398;BME280;2213;49.720;7.296;2022-12-10T03:56:58;97115.78;;;1.71;100.00
4398;BME280;2213;49.720;7.296;2022-12-10T03:59:27;97118.72;;;1.76;100.00
4398;BME280;2213;49.720;7.296;2022-12-10T04:01:58;97117.91;;;1.75;100.00
4398;BME280;2213;49.720;7.296;2022-12-10T04:04:27;97113.09;;;1.72;100.00
4398;BME280;2213;49.720;7.296;2022-12-10T04:06:57;97113.72;;;1.66;100.00
4398;BME280;2213;49.720;7.296;2022-12-10T04:09:26;97120.44;;;1.67;100.00
4398;BME280;2213;49.720;7.296;2022-12-10T04:11:57;97117.72;;;1.69;100.00
4398;BME280;2213;49.720;7.296;2022-12-10T04:14:26;97116.41;;;1.65;100.00
4398;BME280;2213;49.720;7.296;2022-12-10T04:17:16;97125.28;;;1.62;100.00
4398;BME280;2213;49.720;7.296;2022-12-10T04:19:45;97125.09;;;1.64;100.00
4398;BME280;2213;49.720;7.296;2022-12-10T04:22:15;97129.31;;;1.65;100.00
4398;BME280;2213;49.720;7.296;2022-12-10T04:25:02;97129.94;;;1.67;100.00
4398;BME280;2213;49.720;7.296;2022-12-10T04:27:49;97133.19;;;1.69;100.00
4398;BME280;2213;49.720;7.296;2022-12-10T04:30:18;97134.31;;;1.66;100.00
4398;BME280;2213;49.720;7.296;2022-12-10T04:32:49;97136.41;;;1.71;100.00
4398;BME280;2213;49.720;7.296;2022-12-10T04:35:18;97144.81;;;1.73;100.00
4398;BME280;2213;49.720;7.296;2022-12-10T04:37:49;97139.78;;;1.71;100.00
4398;BME280;2213;49.720;7.296;2022-12-10T04:40:18;97137.38;;;1.70;100.00
4398;BME280;2213;49.720;7.296;2022-12-10T04:42:48;97139.28;;;1.68;100.00
4398;BME280;2213;49.720;7.296;2022-12-10T04:45:17;97130.44;;;1.70;100.00
4398;BME280;2213;49.720;7.296;2022-12-10T04:47:48;97138.34;;;1.69;100.00
4398;BME280;2213;49.720;7.296;2022-12-10T04:50:17;97138.03;;;1.72;100.00
4398;BME280;2213;49.720;7.296;2022-12-10T04:52:46;97136.09;;;1.74;100.00
4398;BME280;2213;49.720;7.296;2022-12-10T04:55:16;97140.25;;;1.67;100.00
4398;BME280;2213;49.720;7.296;2022-12-10T04:57:45;97147.28;;;1.57;100.00
4398;BME280;2213;49.720;7.296;2022-12-10T05:00:15;97147.97;;;1.59;100.00
4398;BME280;2213;49.720;7.296;2022-12-10T05:02:49;97147.66;;;1.62;100.00
4398;BME280;2213;49.720;7.296;2022-12-10T05:05:19;97146.66;;;1.55;100.00
4398;BME280;2213;49.720;7.296;2022-12-10T05:07:49;97146.03;;;1.61;100.00
4398;BME280;2213;49.720;7.296;2022-12-10T05:10:19;97154.72;;;1.60;100.00
4398;BME280;2213;49.720;7.296;2022-12-10T05:12:48;97155.81;;;1.57;100.00
4398;BME280;2213;49.720;7.296;2022-12-10T05:15:18;97157.75;;;1.55;100.00
4398;BME280;2213;49.720;7.296;2022-12-10T05:17:50;97157.91;;;1.53;100.00
4398;BME280;2213;49.720;7.296;2022-12-10T05:20:20;97162.72;;;1.48;100.00
4398;BME280;2213;49.720;7.296;2022-12-10T05:22:50;97158.88;;;1.52;100.00
4398;BME280;2213;49.720;7.296;2022-12-10T05:25:36;97156.88;;;1.38;100.00
4398;BME280;2213;49.720;7.296;2022-12-10T05:28:20;97162.22;;;1.45;100.00
4398;BME280;2213;49.720;7.296;2022-12-10T05:30:49;97164.41;;;1.40;100.00
4398;BME280;2213;49.720;7.296;2022-12-10T05:33:20;97167.16;;;1.38;100.00
4398;BME280;2213;49.720;7.296;2022-12-10T05:35:54;97165.88;;;1.42;100.00
4398;BME280;2213;49.720;7.296;2022-12-10T05:38:25;97164.94;;;1.43;100.00
4398;BME280;2213;49.720;7.296;2022-12-10T05:40:54;97168.94;;;1.46;100.00
4398;BME280;2213;49.720;7.296;2022-12-10T05:43:24;97165.75;;;1.44;100.00
4398;BME280;2213;49.720;7.296;2022-12-10T05:45:59;97163.66;;;1.47;100.00
4398;BME280;2213;49.720;7.296;2022-12-10T05:48:31;97170.06;;;1.43;100.00
4398;BME280;2213;49.720;7.296;2022-12-10T05:51:04;97180.69;;;1.40;100.00
4398;BME280;2213;49.720;7.296;2022-12-10T05:53:34;97185.84;;;1.40;100.00
4398;BME280;2213;49.720;7.296;2022-12-10T05:56:07;97182.31;;;1.41;100.00
4398;BME280;2213;49.720;7.296;2022-12-10T05:58:37;97191.28;;;1.37;100.00
4398;BME280;2213;49.720;7.296;2022-12-10T06:01:09;97194.69;;;1.38;100.00
4398;BME280;2213;49.720;7.296;2022-12-10T06:03:41;97201.38;;;1.31;100.00
4398;BME280;2213;49.720;7.296;2022-12-10T06:06:11;97195.06;;;1.25;100.00
4398;BME280;2213;49.720;7.296;2022-12-10T06:08:41;97202.28;;;1.22;100.00
4398;BME280;2213;49.720;7.296;2022-12-10T06:11:12;97205.22;;;1.27;100.00
4398;BME280;2213;49.720;7.296;2022-12-10T06:13:41;97210.56;;;1.33;100.00
4398;BME280;2213;49.720;7.296;2022-12-10T06:16:13;97202.19;;;1.31;100.00
4398;BME280;2213;49.720;7.296;2022-12-10T06:18:44;97209.25;;;1.29;100.00
4398;BME280;2213;49.720;7.296;2022-12-10T06:21:15;97216.03;;;1.30;100.00
4398;BME280;2213;49.720;7.296;2022-12-10T06:23:46;97212.28;;;1.25;100.00
4398;BME280;2213;49.720;7.296;2022-12-10T06:26:19;97219.53;;;1.29;100.00
4398;BME280;2213;49.720;7.296;2022-12-10T06:28:51;97218.28;;;1.33;100.00
4398;BME280;2213;49.720;7.296;2022-12-10T06:31:21;97219.91;;;1.34;100.00
4398;BME280;2213;49.720;7.296;2022-12-10T06:33:52;97222.50;;;1.34;100.00
4398;BME280;2213;49.720;7.296;2022-12-10T06:36:22;97223.13;;;1.36;100.00
4398;BME280;2213;49.720;7.296;2022-12-10T06:38:51;97225.31;;;1.23;100.00
4398;BME280;2213;49.720;7.296;2022-12-10T06:41:21;97226.97;;;1.15;100.00
4398;BME280;2213;49.720;7.296;2022-12-10T06:43:51;97235.22;;;1.18;100.00
4398;BME280;2213;49.720;7.296;2022-12-10T06:46:21;97232.06;;;1.24;100.00
4398;BME280;2213;49.720;7.296;2022-12-10T06:48:52;97243.84;;;1.27;100.00
4398;BME280;2213;49.720;7.296;2022-12-10T06:51:22;97242.06;;;1.27;100.00
4398;BME280;2213;49.720;7.296;2022-12-10T06:53:52;97246.91;;;1.30;100.00
4398;BME280;2213;49.720;7.296;2022-12-10T06:56:22;97251.13;;;1.31;100.00
4398;BME280;2213;49.720;7.296;2022-12-10T06:58:51;97251.94;;;1.32;100.00
4398;BME280;2213;49.720;7.296;2022-12-10T07:01:23;97258.47;;;1.26;100.00
4398;BME280;2213;49.720;7.296;2022-12-10T07:03:58;97259.41;;;1.25;100.00
4398;BME280;2213;49.720;7.296;2022-12-10T07:06:27;97256.72;;;1.27;100.00
4398;BME280;2213;49.720;7.296;2022-12-10T07:08:57;97259.16;;;1.28;100.00
4398;BME280;2213;49.720;7.296;2022-12-10T07:11:27;97258.97;;;1.30;100.00
4398;BME280;2213;49.720;7.296;2022-12-10T07:13:58;97268.34;;;1.31;100.00
4398;BME280;2213;49.720;7.296;2022-12-10T07:16:30;97265.59;;;1.32;100.00
4398;BME280;2213;49.720;7.296;2022-12-10T07:19:02;97276.19;;;1.29;100.00
4398;BME280;2213;49.720;7.296;2022-12-10T07:21:34;97269.97;;;1.14;100.00
4398;BME280;2213;49.720;7.296;2022-12-10T07:24:06;97271.13;;;1.02;100.00
4398;BME280;2213;49.720;7.296;2022-12-10T07:26:39;97270.84;;;1.05;100.00
4398;BME280;2213;49.720;7.296;2022-12-10T07:29:13;97282.16;;;1.12;100.00
4398;BME280;2213;49.720;7.296;2022-12-10T07:31:43;97278.84;;;1.02;100.00
4398;BME280;2213;49.720;7.296;2022-12-10T07:34:15;97284.09;;;1.10;100.00
4398;BME280;2213;49.720;7.296;2022-12-10T07:36:45;97286.66;;;1.10;100.00
4398;BME280;2213;49.720;7.296;2022-12-10T07:39:16;97286.56;;;1.02;100.00
4398;BME280;2213;49.720;7.296;2022-12-10T07:41:47;97293.88;;;1.07;100.00
4398;BME280;2213;49.720;7.296;2022-12-10T07:44:19;97300.47;;;1.09;100.00
4398;BME280;2213;49.720;7.296;2022-12-10T07:46:51;97295.91;;;1.03;100.00
4398;BME280;2213;49.720;7.296;2022-12-10T07:49:22;97297.81;;;1.01;100.00
4398;BME280;2213;49.720;7.296;2022-12-10T07:51:52;97300.69;;;0.98;100.00
4398;BME280;2213;49.720;7.296;2022-12-10T07:54:21;97302.19;;;1.00;100.00
4398;BME280;2213;49.720;7.296;2022-12-10T07:56:52;97308.09;;;1.01;100.00
4398;BME280;2213;49.720;7.296;2022-12-10T07:59:22;97306.22;;;1.03;100.00
4398;BME280;2213;49.720;7.296;2022-12-10T08:01:52;97305.53;;;1.01;100.00
4398;BME280;2213;49.720;7.296;2022-12-10T08:04:22;97310.03;;;0.99;100.00
4398;BME280;2213;49.720;7.296;2022-12-10T08:06:55;97315.59;;;0.94;100.00
4398;BME280;2213;49.720;7.296;2022-12-10T08:09:24;97321.97;;;0.90;100.00
4398;BME280;2213;49.720;7.296;2022-12-10T08:11:53;97320.91;;;0.93;100.00
4398;BME280;2213;49.720;7.296;2022-12-10T08:14:23;97326.06;;;0.93;100.00
4398;BME280;2213;49.720;7.296;2022-12-10T08:16:52;97324.03;;;0.87;100.00
4398;BME280;2213;49.720;7.296;2022-12-10T08:19:23;97322.97;;;0.89;100.00
4398;BME280;2213;49.720;7.296;2022-12-10T08:21:59;97315.09;;;0.91;100.00
4398;BME280;2213;49.720;7.296;2022-12-10T08:24:28;97318.53;;;0.82;100.00
4398;BME280;2213;49.720;7.296;2022-12-10T08:26:57;97323.78;;;0.90;100.00
4398;BME280;2213;49.720;7.296;2022-12-10T08:29:27;97321.97;;;0.90;100.00
4398;BME280;2213;49.720;7.296;2022-12-10T08:31:57;97328.91;;;0.90;100.00
4398;BME280;2213;49.720;7.296;2022-12-10T08:34:28;97324.13;;;0.95;100.00
4398;BME280;2213;49.720;7.296;2022-12-10T08:36:58;97321.66;;;1.03;100.00
4398;BME280;2213;49.720;7.296;2022-12-10T08:39:28;97331.78;;;1.05;100.00
4398;BME280;2213;49.720;7.296;2022-12-10T08:41:58;97328.78;;;1.09;100.00
4398;BME280;2213;49.720;7.296;2022-12-10T08:44:27;97327.53;;;1.13;100.00
4398;BME280;2213;49.720;7.296;2022-12-10T08:46:56;97335.91;;;1.15;100.00
4398;BME280;2213;49.720;7.296;2022-12-10T08:49:28;97327.53;;;1.13;100.00
4398;BME280;2213;49.720;7.296;2022-12-10T08:51:59;97327.25;;;1.16;100.00
4398;BME280;2213;49.720;7.296;2022-12-10T08:54:29;97333.88;;;1.19;100.00
4398;BME280;2213;49.720;7.296;2022-12-10T08:56:59;97332.91;;;1.20;100.00
4398;BME280;2213;49.720;7.296;2022-12-10T08:59:30;97334.69;;;1.19;100.00
4398;BME280;2213;49.720;7.296;2022-12-10T09:01:59;97338.88;;;1.20;100.00
4398;BME280;2213;49.720;7.296;2022-12-10T09:04:30;97348.88;;;1.23;100.00
4398;BME280;2213;49.720;7.296;2022-12-10T09:06:59;97342.78;;;1.24;100.00
4398;BME280;2213;49.720;7.296;2022-12-10T09:09:30;97343.72;;;1.23;100.00
4398;BME280;2213;49.720;7.296;2022-12-10T09:12:00;97342.09;;;1.22;100.00
4398;BME280;2213;49.720;7.296;2022-12-10T09:14:28;97344.84;;;1.21;100.00
4398;BME280;2213;49.720;7.296;2022-12-10T09:16:58;97346.81;;;1.27;100.00
4398;BME280;2213;49.720;7.296;2022-12-10T09:19:29;97356.59;;;1.23;100.00
4398;BME280;2213;49.720;7.296;2022-12-10T09:21:59;97350.00;;;1.21;100.00
4398;BME280;2213;49.720;7.296;2022-12-10T09:24:29;97354.03;;;1.23;100.00
4398;BME280;2213;49.720;7.296;2022-12-10T09:26:59;97352.28;;;1.24;100.00
4398;BME280;2213;49.720;7.296;2022-12-10T09:29:29;97354.97;;;1.22;100.00
4398;BME280;2213;49.720;7.296;2022-12-10T09:31:59;97356.47;;;1.25;100.00
4398;BME280;2213;49.720;7.296;2022-12-10T09:34:30;97353.72;;;1.26;100.00
4398;BME280;2213;49.720;7.296;2022-12-10T09:36:59;97350.22;;;1.27;100.00
4398;BME280;2213;49.720;7.296;2022-12-10T09:39:28;97359.03;;;1.25;100.00
4398;BME280;2213;49.720;7.296;2022-12-10T09:42:17;97364.63;;;1.20;100.00
4398;BME280;2213;49.720;7.296;2022-12-10T09:45:02;97373.06;;;1.13;100.00
4398;BME280;2213;49.720;7.296;2022-12-10T09:47:41;97373.88;;;1.13;100.00
4398;BME280;2213;49.720;7.296;2022-12-10T09:50:23;97364.16;;;1.07;100.00
4398;BME280;2213;49.720;7.296;2022-12-10T09:52:57;97372.25;;;1.12;100.00
4398;BME280;2213;49.720;7.296;2022-12-10T09:55:35;97370.16;;;0.98;100.00
4398;BME280;2213;49.720;7.296;2022-12-10T09:58:13;97367.97;;;1.03;100.00
4398;BME280;2213;49.720;7.296;2022-12-10T10:00:48;97361.88;;;1.04;100.00
4398;BME280;2213;49.720;7.296;2022-12-10T10:03:18;97361.59;;;1.07;100.00
4398;BME280;2213;49.720;7.296;2022-12-10T10:05:51;97353.59;;;1.10;100.00
4398;BME280;2213;49.720;7.296;2022-12-10T10:08:28;97362.13;;;1.11;100.00
4398;BME280;2213;49.720;7.296;2022-12-10T10:11:00;97366.28;;;1.12;100.00
4398;BME280;2213;49.720;7.296;2022-12-10T10:13:36;97356.00;;;1.12;100.00
4398;BME280;2213;49.720;7.296;2022-12-10T10:16:23;97358.44;;;1.13;100.00
4398;BME280;2213;49.720;7.296;2022-12-10T10:18:58;97354.91;;;1.14;100.00
4398;BME280;2213;49.720;7.296;2022-12-10T10:21:33;97350.56;;;1.15;100.00
4398;BME280;2213;49.720;7.296;2022-12-10T10:24:04;97353.00;;;1.16;100.00
4398;BME280;2213;49.720;7.296;2022-12-10T10:26:38;97351.22;;;1.17;100.00
4398;BME280;2213;49.720;7.296;2022-12-10T10:29:11;97358.66;;;1.20;100.00
4398;BME280;2213;49.720;7.296;2022-12-10T10:31:43;97352.56;;;1.21;100.00
4398;BME280;2213;49.720;7.296;2022-12-10T10:34:17;97350.50;;;1.24;100.00
4398;BME280;2213;49.720;7.296;2022-12-10T10:36:56;97346.00;;;1.26;100.00
4398;BME280;2213;49.720;7.296;2022-12-10T10:39:30;97346.16;;;1.25;100.00
4398;BME280;2213;49.720;7.296;2022-12-10T10:42:08;97354.69;;;1.25;100.00
4398;BME280;2213;49.720;7.296;2022-12-10T10:44:38;97343.59;;;1.25;100.00
4398;BME280;2213;49.720;7.296;2022-12-10T10:47:27;97341.53;;;1.28;100.00
4398;BME280;2213;49.720;7.296;2022-12-10T10:50:02;97348.28;;;1.29;100.00
4398;BME280;2213;49.720;7.296;2022-12-10T10:52:38;97343.66;;;1.33;100.00
4398;BME280;2213;49.720;7.296;2022-12-10T10:55:31;97345.41;;;1.32;100.00
4398;BME280;2213;49.720;7.296;2022-12-10T10:58:03;97349.63;;;1.33;100.00
4398;BME280;2213;49.720;7.296;2022-12-10T11:00:33;97347.72;;;1.35;100.00
4398;BME280;2213;49.720;7.296;2022-12-10T11:03:06;97350.13;;;1.37;100.00
4398;BME280;2213;49.720;7.296;2022-12-10T11:05:36;97345.81;;;1.37;100.00
4398;BME280;2213;49.720;7.296;2022-12-10T11:08:19;97345.50;;;1.40;100.00
4398;BME280;2213;49.720;7.296;2022-12-10T11:10:50;97349.31;;;1.36;100.00
4398;BME280;2213;49.720;7.296;2022-12-10T11:13:24;97348.50;;;1.36;100.00
4398;BME280;2213;49.720;7.296;2022-12-10T11:16:01;97344.69;;;1.40;100.00
4398;BME280;2213;49.720;7.296;2022-12-10T11:18:34;97353.22;;;1.40;100.00
4398;BME280;2213;49.720;7.296;2022-12-10T11:21:09;97356.44;;;1.42;100.00
4398;BME280;2213;49.720;7.296;2022-12-10T11:23:47;97346.44;;;1.39;100.00
4398;BME280;2213;49.720;7.296;2022-12-10T11:26:34;97349.31;;;1.36;100.00
4398;BME280;2213;49.720;7.296;2022-12-10T11:29:33;97351.25;;;1.34;100.00
4398;BME280;2213;49.720;7.296;2022-12-10T11:32:30;97355.28;;;1.37;100.00
4398;BME280;2213;49.720;7.296;2022-12-10T11:35:14;97353.22;;;1.40;100.00
4398;BME280;2213;49.720;7.296;2022-12-10T11:37:57;97354.19;;;1.39;100.00
4398;BME280;2213;49.720;7.296;2022-12-10T11:40:45;97352.56;;;1.38;100.00
4398;BME280;2213;49.720;7.296;2022-12-10T11:43:38;97351.91;;;1.36;100.00
4398;BME280;2213;49.720;7.296;2022-12-10T11:46:30;97348.06;;;1.40;100.00
4398;BME280;2213;49.720;7.296;2022-12-10T11:49:21;97355.81;;;1.40;100.00
4398;BME280;2213;49.720;7.296;2022-12-10T11:52:07;97355.81;;;1.40;100.00
4398;BME280;2213;49.720;7.296;2022-12-10T11:54:58;97357.44;;;1.41;100.00
4398;BME280;2213;49.720;7.296;2022-12-10T11:57:48;97351.47;;;1.41;100.00
4398;BME280;2213;49.720;7.296;2022-12-10T12:00:22;97353.88;;;1.42;100.00
4398;BME280;2213;49.720;7.296;2022-12-10T12:03:20;97355.22;;;1.46;100.00
4398;BME280;2213;49.720;7.296;2022-12-10T12:06:16;97358.16;;;1.51;100.00
4398;BME280;2213;49.720;7.296;2022-12-10T12:08:55;97352.63;;;1.46;100.00
4398;BME280;2213;49.720;7.296;2022-12-10T12:11:47;97361.69;;;1.50;100.00
4398;BME280;2213;49.720;7.296;2022-12-10T12:14:27;97355.44;;;1.53;100.00
4398;BME280;2213;49.720;7.296;2022-12-10T12:17:06;97361.09;;;1.57;100.00
4398;BME280;2213;49.720;7.296;2022-12-10T12:19:42;97358.25;;;1.60;100.00
4398;BME280;2213;49.720;7.296;2022-12-10T12:22:20;97365.69;;;1.63;100.00
4398;BME280;2213;49.720;7.296;2022-12-10T12:24:55;97365.69;;;1.63;100.00
4398;BME280;2213;49.720;7.296;2022-12-10T12:27:32;97364.69;;;1.64;100.00
4398;BME280;2213;49.720;7.296;2022-12-10T12:30:15;97364.56;;;1.65;100.00
4398;BME280;2213;49.720;7.296;2022-12-10T12:32:55;97361.81;;;1.67;100.00
4398;BME280;2213;49.720;7.296;2022-12-10T12:35:38;97356.66;;;1.67;100.00
4398;BME280;2213;49.720;7.296;2022-12-10T12:38:27;97364.25;;;1.68;100.00
4398;BME280;2213;49.720;7.296;2022-12-10T12:41:03;97369.28;;;1.70;100.00
4398;BME280;2213;49.720;7.296;2022-12-10T12:43:44;97369.28;;;1.70;100.00
4398;BME280;2213;49.720;7.296;2022-12-10T12:46:27;97371.56;;;1.73;100.00
4398;BME280;2213;49.720;7.296;2022-12-10T12:49:02;97372.38;;;1.73;100.00
4398;BME280;2213;49.720;7.296;2022-12-10T12:51:44;97372.06;;;1.76;100.00
4398;BME280;2213;49.720;7.296;2022-12-10T12:54:15;97378.03;;;1.77;100.00
4398;BME280;2213;49.720;7.296;2022-12-10T12:57:04;97388.84;;;1.80;100.00
4398;BME280;2213;49.720;7.296;2022-12-10T13:00:10;97381.78;;;1.82;100.00
4398;BME280;2213;49.720;7.296;2022-12-10T13:02:58;97387.44;;;1.86;100.00
4398;BME280;2213;49.720;7.296;2022-12-10T13:05:32;97386.13;;;1.82;100.00
4398;BME280;2213;49.720;7.296;2022-12-10T13:08:41;97382.88;;;1.80;100.00
4398;BME280;2213;49.720;7.296;2022-12-10T13:11:28;97388.03;;;1.80;100.00
4398;BME280;2213;49.720;7.296;2022-12-10T13:14:33;97395.09;;;1.78;100.00
4398;BME280;2213;49.720;7.296;2022-12-10T13:17:26;97392.38;;;1.79;100.00
4398;BME280;2213;49.720;7.296;2022-12-10T13:20:32;97394.16;;;1.79;100.00
4398;BME280;2213;49.720;7.296;2022-12-10T13:23:03;97396.72;;;1.79;100.00
4398;BME280;2213;49.720;7.296;2022-12-10T13:25:54;97400.25;;;1.78;100.00
4398;BME280;2213;49.720;7.296;2022-12-10T13:28:48;97406.66;;;1.74;100.00
4398;BME280;2213;49.720;7.296;2022-12-10T13:31:37;97398.13;;;1.73;100.00
4398;BME280;2213;49.720;7.296;2022-12-10T13:34:31;97406.81;;;1.72;100.00
4398;BME280;2213;49.720;7.296;2022-12-10T13:37:30;97407.94;;;1.70;100.00
4398;BME280;2213;49.720;7.296;2022-12-10T13:40:23;97400.75;;;1.64;100.00
4398;BME280;2213;49.720;7.296;2022-12-10T13:42:59;97406.09;;;1.62;100.00
4398;BME280;2213;49.720;7.296;2022-12-10T13:46:27;97414.63;;;1.63;100.00
4398;BME280;2213;49.720;7.296;2022-12-10T13:49:00;97416.22;;;1.64;100.00
4398;BME280;2213;49.720;7.296;2022-12-10T13:51:54;97424.25;;;1.61;100.00
4398;BME280;2213;49.720;7.296;2022-12-10T13:54:55;97426.47;;;1.56;100.00
4398;BME280;2213;49.720;7.296;2022-12-10T13:58:14;97417.94;;;1.55;100.00
4398;BME280;2213;49.720;7.296;2022-12-10T14:00:56;97432.47;;;1.46;100.00
4398;BME280;2213;49.720;7.296;2022-12-10T14:04:05;97433.00;;;1.50;100.00
4398;BME280;2213;49.720;7.296;2022-12-10T14:06:39;97425.72;;;1.45;100.00